Time;durP1;ratioP1;P1;durP2;ratioP2;P2;SDS_P1;SDS_P2;PMS_P1;PMS_P2;Temp;Humidity;BMP_temperature;BMP_pressure;BME280_temperature;BME280_humidity;BME280_pressure;Samples;Min_cycle;Max_cycle;Signal;HPM_P1;HPM_P2
2022/08/26 00:01:54;;;;;;;5.05;4.57;;;34.10;98.90;;;;;;5039788;28;20208;-95
2022/08/26 00:04:26;;;;;;;4.95;4.40;;;33.90;99.10;;;;;;5039043;28;20205;-95
2022/08/26 00:06:59;;;;;;;5.53;4.47;;;33.80;99.20;;;;;;5039016;28;20725;-95
2022/08/26 00:09:31;;;;;;;4.80;4.40;;;33.70;98.80;;;;;;5040245;28;20204;-94
2022/08/26 00:12:08;;;;;;;5.07;4.30;;;33.60;99.40;;;;;;5040284;28;20280;-95
2022/08/26 00:14:42;;;;;;;5.40;4.30;;;33.40;99.90;;;;;;5053619;28;20244;-94
2022/08/26 00:17:13;;;;;;;4.63;4.22;;;33.10;99.40;;;;;;5057096;28;20696;-93
2022/08/26 00:19:45;;;;;;;4.95;4.55;;;33.20;99.80;;;;;;5056070;28;20248;-94
2022/08/26 00:22:21;;;;;;;4.85;4.32;;;33.40;99.90;;;;;;5043818;28;20213;-93
2022/08/26 00:24:53;;;;;;;5.40;4.40;;;33.40;99.80;;;;;;5043634;28;20200;-93
2022/08/26 00:27:25;;;;;;;5.22;4.40;;;33.40;99.90;;;;;;5041942;28;20240;-94
2022/08/26 00:29:57;;;;;;;7.57;4.30;;;33.50;99.90;;;;;;5041214;28;20209;-93
2022/08/26 00:32:29;;;;;;;4.65;4.28;;;33.50;99.80;;;;;;5040518;28;20209;-94
2022/08/26 00:35:00;;;;;;;4.85;3.88;;;33.40;99.60;;;;;;5040741;28;20205;-94
2022/08/26 00:37:33;;;;;;;4.95;4.45;;;33.20;99.90;;;;;;5041144;28;20236;-94
2022/08/26 00:40:05;;;;;;;4.43;3.80;;;33.40;99.90;;;;;;5040533;28;20204;-94
2022/08/26 00:42:40;;;;;;;4.22;3.80;;;33.40;99.90;;;;;;5040376;28;20204;-94
2022/08/26 00:45:17;;;;;;;4.68;3.95;;;33.20;99.90;;;;;;5040936;28;20219;-94
2022/08/26 00:47:51;;;;;;;4.10;3.80;;;33.20;99.90;;;;;;5040985;28;20240;-94
2022/08/26 00:50:26;;;;;;;6.68;4.10;;;33.20;99.90;;;;;;5040937;28;20220;-94
2022/08/26 00:53:02;;;;;;;6.18;4.13;;;33.10;99.90;;;;;;5040205;28;20637;-94
2022/08/26 00:55:40;;;;;;;4.68;3.85;;;33.00;99.90;;;;;;5041134;28;20234;-94
2022/08/26 00:58:11;;;;;;;4.30;3.90;;;32.90;99.90;;;;;;5039109;28;20221;-94
2022/08/26 01:00:43;;;;;;;4.88;4.07;;;32.70;99.90;;;;;;5040817;28;20259;-94
2022/08/26 01:03:16;;;;;;;4.40;3.92;;;32.70;99.90;;;;;;5040260;28;20213;-93
2022/08/26 01:05:47;;;;;;;5.43;4.07;;;32.50;99.90;;;;;;5040628;28;20244;-94
2022/08/26 01:08:22;;;;;;;4.18;3.65;;;32.60;99.90;;;;;;5040215;28;20653;-94
2022/08/26 01:10:54;;;;;;;6.95;4.10;;;32.80;99.90;;;;;;5040266;28;20213;-92
2022/08/26 01:13:28;;;;;;;6.53;4.05;;;32.90;99.90;;;;;;5039360;28;20239;-94
2022/08/26 01:16:03;;;;;;;6.00;3.70;;;33.10;99.90;;;;;;5039299;28;20263;-94
2022/08/26 01:18:35;;;;;;;4.40;4.00;;;33.30;99.90;;;;;;5020795;28;20568;-91
2022/08/26 01:21:16;;;;;;;4.10;3.80;;;33.40;99.30;;;;;;5020400;28;20213;-94
2022/08/26 01:23:51;;;;;;;4.68;3.78;;;33.50;99.60;;;;;;5020043;28;20205;-94
2022/08/26 01:26:31;;;;;;;4.78;4.38;;;33.60;99.50;;;;;;5019149;28;20240;-94
2022/08/26 01:29:05;;;;;;;6.50;3.83;;;33.20;99.90;;;;;;5020255;28;20271;-94
2022/08/26 01:31:43;;;;;;;4.38;3.97;;;32.90;99.90;;;;;;5019656;28;20264;-94
2022/08/26 01:34:21;;;;;;;5.30;3.80;;;32.40;99.90;;;;;;5021225;28;20213;-95
2022/08/26 01:36:59;;;;;;;4.10;3.58;;;31.80;99.90;;;;;;5019842;28;20712;-95
2022/08/26 01:39:34;;;;;;;4.38;3.90;;;31.50;99.90;;;;;;5020189;28;20205;-95
2022/08/26 01:42:13;;;;;;;6.38;4.10;;;31.20;99.90;;;;;;5019216;28;20217;-95
2022/08/26 01:44:47;;;;;;;4.95;3.90;;;31.00;99.90;;;;;;5020025;28;20268;-95
2022/08/26 01:47:29;;;;;;;5.68;3.53;;;30.80;99.90;;;;;;5023050;28;20220;-95
2022/08/26 01:52:42;;;;;;;8.20;5.18;;;30.30;99.90;;;;;;5033532;23;20248;-96
2022/08/26 01:55:26;;;;;;;8.68;7.53;;;30.10;99.90;;;;;;5018429;28;20202;-93
2022/08/26 01:58:16;;;;;;;11.95;7.32;;;29.70;99.90;;;;;;5019470;28;20229;-94
2022/08/26 02:00:54;;;;;;;7.22;6.05;;;29.30;99.90;;;;;;5015930;28;20296;-92
2022/08/26 02:03:27;;;;;;;5.53;3.90;;;29.00;99.90;;;;;;5019281;28;20194;-93
2022/08/26 02:06:07;;;;;;;6.30;4.57;;;28.80;99.90;;;;;;5018773;28;20218;-92
2022/08/26 02:11:32;;;;;;;5.63;3.83;;;28.70;99.90;;;;;;5018477;28;20206;-93
2022/08/26 02:16:57;;;;;;;6.00;4.07;;;28.60;99.90;;;;;;5008723;28;20249;-93
2022/08/26 02:19:33;;;;;;;3.83;3.53;;;28.50;99.90;;;;;;5002890;28;20214;-92
2022/08/26 02:22:09;;;;;;;6.25;4.18;;;28.40;99.90;;;;;;5012559;28;20190;-93
2022/08/26 02:24:49;;;;;;;4.05;3.75;;;28.40;99.90;;;;;;5015961;28;20214;-93
2022/08/26 02:31:16;;;;;;;7.07;3.97;;;28.30;99.90;;;;;;5015593;28;20209;-93
2022/08/26 02:34:17;;;;;;;5.15;3.92;;;28.10;99.90;;;;;;5015611;28;20209;-94
2022/08/26 02:36:50;;;;;;;6.87;3.80;;;27.90;99.90;;;;;;5011182;28;20229;-94
2022/08/26 02:39:22;;;;;;;4.15;3.58;;;27.90;99.90;;;;;;5014223;28;20194;-94
2022/08/26 02:42:04;;;;;;;4.63;3.90;;;27.80;99.90;;;;;;5006921;28;20214;-94
2022/08/26 02:44:42;;;;;;;4.33;3.93;;;27.70;99.90;;;;;;5008669;28;20687;-93
2022/08/26 02:50:08;;;;;;;6.03;3.40;;;27.40;99.90;;;;;;5068103;23;20229;-94
2022/08/26 02:52:44;;;;;;;4.50;4.20;;;27.30;99.90;;;;;;5033442;28;20252;-93
2022/08/26 02:55:20;;;;;;;7.27;3.60;;;27.20;99.90;;;;;;5034164;28;20194;-94
2022/08/26 03:01:06;;;;;;;6.13;3.80;;;27.00;99.90;;;;;;5031337;28;20237;-95
2022/08/26 03:17:33;;;;;;;5.40;4.47;;;26.40;99.90;;;;;;5032489;28;20237;-94
2022/08/26 03:20:07;;;;;;;5.60;4.17;;;26.30;99.90;;;;;;5032453;28;20206;-94
2022/08/26 03:22:42;;;;;;;4.70;4.30;;;26.30;99.90;;;;;;5030877;28;20206;-94
2022/08/26 03:25:25;;;;;;;5.23;4.07;;;26.20;99.90;;;;;;5012864;28;20252;-94
2022/08/26 03:27:58;;;;;;;5.20;4.00;;;26.10;99.90;;;;;;5015574;28;20210;-95
2022/08/26 03:30:40;;;;;;;5.07;4.57;;;26.10;99.90;;;;;;5016705;28;20281;-94
2022/08/26 03:33:17;;;;;;;10.33;4.77;;;26.00;99.90;;;;;;5007334;28;20222;-94
2022/08/26 03:35:50;;;;;;;5.73;4.93;;;25.90;99.90;;;;;;5002238;28;20225;-94
2022/08/26 03:38:23;;;;;;;6.27;4.60;;;25.90;99.90;;;;;;5001560;28;20226;-94
2022/08/26 03:40:55;;;;;;;6.13;4.67;;;25.70;99.90;;;;;;5006319;28;20218;-94
2022/08/26 03:43:27;;;;;;;8.20;5.30;;;25.70;99.90;;;;;;5001626;28;20206;-94
2022/08/26 03:45:58;;;;;;;5.93;4.97;;;25.60;99.90;;;;;;5006081;28;20214;-93
2022/08/26 03:48:34;;;;;;;5.03;4.53;;;25.50;99.90;;;;;;5006398;28;20233;-94
2022/08/26 03:51:13;;;;;;;6.47;4.87;;;25.50;99.90;;;;;;5008132;28;20237;-94
2022/08/26 03:53:48;;;;;;;6.77;4.93;;;25.50;99.90;;;;;;5000885;28;20213;-94
2022/08/26 03:56:20;;;;;;;5.63;5.07;;;25.30;99.90;;;;;;5000642;28;20202;-93
2022/08/26 03:58:55;;;;;;;8.50;4.83;;;25.30;99.90;;;;;;5006472;28;20268;-94
2022/08/26 04:04:23;;;;;;;5.63;5.13;;;25.30;99.90;;;;;;5013402;28;20214;-94
2022/08/26 04:07:01;;;;;;;6.50;5.00;;;25.30;99.90;;;;;;5016889;28;20217;-94
2022/08/26 04:12:34;;;;;;;5.50;4.87;;;25.10;99.90;;;;;;5036724;28;20185;-94
2022/08/26 04:15:12;;;;;;;6.73;4.77;;;25.10;99.90;;;;;;5016954;28;20221;-94
2022/08/26 04:17:43;;;;;;;5.83;5.17;;;25.10;99.90;;;;;;5029986;28;20263;-92
2022/08/26 04:20:19;;;;;;;5.47;4.97;;;25.00;99.90;;;;;;5020698;28;20210;-93
2022/08/26 04:22:51;;;;;;;5.63;5.13;;;24.90;99.90;;;;;;5018252;28;20260;-93
2022/08/26 04:25:22;;;;;;;8.53;5.10;;;24.80;99.90;;;;;;5009485;28;20249;-92
2022/08/26 04:27:54;;;;;;;7.83;4.97;;;24.80;99.90;;;;;;4998308;28;20249;-93
2022/08/26 04:30:26;;;;;;;5.13;4.60;;;24.80;99.90;;;;;;4998372;28;20218;-93
2022/08/26 04:32:58;;;;;;;6.33;5.00;;;24.70;99.90;;;;;;4997440;28;20230;-94
2022/08/26 04:35:33;;;;;;;6.90;5.00;;;24.50;99.90;;;;;;4996660;28;20210;-94
2022/08/26 04:38:07;;;;;;;5.27;4.63;;;24.50;99.90;;;;;;4998188;28;20242;-93
2022/08/26 04:40:39;;;;;;;5.17;4.60;;;24.40;99.90;;;;;;4998323;28;20202;-94
2022/08/26 04:43:16;;;;;;;6.10;4.53;;;24.20;99.90;;;;;;4997100;28;20233;-93
2022/08/26 04:45:47;;;;;;;6.97;4.80;;;24.20;99.90;;;;;;5012438;28;20245;-93
2022/08/26 04:48:22;;;;;;;5.00;4.57;;;24.10;99.90;;;;;;5017557;28;20233;-93
2022/08/26 04:50:59;;;;;;;6.50;4.27;;;24.00;99.90;;;;;;5017696;28;20662;-93
2022/08/26 04:53:31;;;;;;;5.23;4.50;;;23.90;99.90;;;;;;5016781;28;20217;-94
2022/08/26 04:56:04;;;;;;;6.10;4.60;;;23.90;99.90;;;;;;5017633;28;20206;-94
2022/08/26 04:58:36;;;;;;;5.23;4.37;;;23.90;99.90;;;;;;5017451;28;20237;-93
2022/08/26 05:01:07;;;;;;;6.10;4.23;;;23.80;99.90;;;;;;5020687;28;20235;-93
2022/08/26 05:03:39;;;;;;;8.37;4.57;;;23.70;99.90;;;;;;5020465;28;20225;-93
2022/08/26 05:06:13;;;;;;;4.50;4.10;;;23.70;99.90;;;;;;5021380;28;20217;-94
2022/08/26 05:08:48;;;;;;;4.97;4.20;;;23.70;99.90;;;;;;5021337;28;20233;-93
2022/08/26 05:11:22;;;;;;;5.37;4.20;;;23.60;99.90;;;;;;5021214;28;20214;-95
2022/08/26 05:13:53;;;;;;;4.50;4.10;;;23.50;99.90;;;;;;5022394;28;20259;-93
2022/08/26 05:16:30;;;;;;;6.70;4.47;;;23.40;99.90;;;;;;4983756;28;20636;-93
2022/08/26 05:19:02;;;;;;;5.93;3.63;;;23.40;99.90;;;;;;4994338;28;20219;-93
2022/08/26 05:21:39;;;;;;;4.83;4.23;;;23.30;99.90;;;;;;4998655;28;20198;-94
2022/08/26 05:24:13;;;;;;;4.37;3.90;;;23.30;99.90;;;;;;4999465;28;20187;-94
2022/08/26 05:26:46;;;;;;;4.50;4.10;;;23.20;99.90;;;;;;4999305;28;20211;-93
2022/08/26 05:29:17;;;;;;;4.67;3.70;;;23.10;99.90;;;;;;5000029;28;20209;-93
2022/08/26 05:31:51;;;;;;;4.87;3.63;;;23.00;99.90;;;;;;4999182;28;20278;-93
2022/08/26 05:34:25;;;;;;;5.17;3.17;;;22.90;99.90;;;;;;4999901;28;20210;-94
2022/08/26 05:37:10;;;;;;;4.83;3.40;;;22.80;99.90;;;;;;5000155;28;20207;-91
2022/08/26 05:39:46;;;;;;;6.10;3.70;;;22.70;99.90;;;;;;4998320;28;20282;-93
2022/08/26 05:42:20;;;;;;;4.37;3.03;;;22.70;99.90;;;;;;4990851;28;20225;-93
2022/08/26 05:44:55;;;;;;;4.80;2.97;;;22.70;99.90;;;;;;5001287;28;20210;-95
2022/08/26 05:50:20;;;;;;;3.73;3.23;;;22.50;99.90;;;;;;5030941;28;20213;-95
2022/08/26 05:52:55;;;;;;;3.93;2.87;;;22.50;99.90;;;;;;5026464;28;20228;-94
2022/08/26 05:55:26;;;;;;;2.90;2.70;;;22.50;99.90;;;;;;5024384;28;20634;-93
2022/08/26 05:57:58;;;;;;;3.30;2.93;;;22.40;99.90;;;;;;5003839;28;20269;-94
2022/08/26 06:00:31;;;;;;;3.60;3.30;;;22.40;99.90;;;;;;5003062;28;20217;-93
2022/08/26 06:03:03;;;;;;;4.23;3.17;;;22.30;99.90;;;;;;4999683;28;20210;-93
2022/08/26 06:05:39;;;;;;;5.43;3.10;;;22.30;99.90;;;;;;5000425;28;20213;-94
2022/08/26 06:08:15;;;;;;;5.03;2.93;;;22.20;99.90;;;;;;5000476;28;20206;-94
2022/08/26 06:10:51;;;;;;;4.77;2.60;;;22.10;99.90;;;;;;4999544;28;20280;-93
2022/08/26 06:13:24;;;;;;;2.97;2.50;;;22.00;99.90;;;;;;5001831;28;20210;-94
2022/08/26 06:15:57;;;;;;;4.43;2.37;;;21.90;99.90;;;;;;5000202;28;20289;-93
2022/08/26 06:18:33;;;;;;;3.80;2.80;;;21.80;99.90;;;;;;4999638;28;20291;-94
2022/08/26 06:21:16;;;;;;;3.87;2.40;;;21.70;99.90;;;;;;4999803;28;20635;-93
2022/08/26 06:26:42;;;;;;;2.57;2.37;;;21.60;99.90;;;;;;4985347;28;20218;-93
2022/08/26 06:29:19;;;;;;;4.53;2.40;;;21.50;99.90;;;;;;4980097;28;20218;-92
2022/08/26 06:31:53;;;;;;;2.50;2.30;;;21.40;99.90;;;;;;4979201;28;20210;-93
2022/08/26 06:34:27;;;;;;;2.63;2.00;;;21.40;99.90;;;;;;4980249;28;20330;-93
2022/08/26 06:37:01;;;;;;;2.90;2.10;;;21.30;99.90;;;;;;4980151;28;20222;-92
2022/08/26 06:39:35;;;;;;;3.43;2.10;;;21.20;99.90;;;;;;4979803;28;20238;-93
2022/08/26 06:42:10;;;;;;;2.50;1.90;;;21.20;99.90;;;;;;4979672;28;20219;-93
2022/08/26 06:44:42;;;;;;;4.03;2.23;;;21.10;99.90;;;;;;4990829;28;20210;-93
2022/08/26 06:47:14;;;;;;;3.73;2.20;;;21.00;99.90;;;;;;5019678;28;20209;-94
2022/08/26 06:49:45;;;;;;;2.20;2.00;;;20.80;99.90;;;;;;5020701;28;20216;-93
2022/08/26 06:52:17;;;;;;;2.67;2.27;;;20.80;99.90;;;;;;5023647;28;20205;-93
2022/08/26 06:54:56;;;;;;;3.17;2.00;;;20.70;99.90;;;;;;5023030;28;20248;-93
2022/08/26 06:57:31;;;;;;;3.63;2.40;;;20.60;99.90;;;;;;5023393;28;20205;-92
2022/08/26 07:00:08;;;;;;;3.80;2.50;;;20.60;99.90;;;;;;5019477;28;20225;-93
2022/08/26 07:02:40;;;;;;;3.73;2.20;;;20.50;99.90;;;;;;5017488;28;20662;-93
2022/08/26 07:05:16;;;;;;;3.23;2.23;;;20.50;99.90;;;;;;5020036;28;20209;-93
2022/08/26 07:07:49;;;;;;;2.43;2.23;;;20.40;99.90;;;;;;5020358;28;20206;-93
2022/08/26 07:10:22;;;;;;;3.33;2.50;;;20.20;99.90;;;;;;5021556;28;20244;-94
2022/08/26 07:12:54;;;;;;;3.80;2.60;;;20.10;99.90;;;;;;5017202;28;20244;-94
2022/08/26 07:15:26;;;;;;;2.23;2.07;;;20.10;99.90;;;;;;5007090;28;20242;-93
2022/08/26 07:20:44;;;;;;;2.53;2.30;;;20.00;99.90;;;;;;5000402;28;20912;-93
2022/08/26 07:23:16;;;;;;;2.73;2.40;;;20.00;99.90;;;;;;4980844;28;20211;-94
2022/08/26 07:25:49;;;;;;;3.60;2.60;;;19.90;99.90;;;;;;4979672;28;20268;-93
2022/08/26 07:28:21;;;;;;;3.37;2.60;;;19.90;99.90;;;;;;4986252;28;20207;-93
2022/08/26 07:30:55;;;;;;;2.77;2.57;;;19.90;99.90;;;;;;4985867;28;20211;-93
2022/08/26 07:33:27;;;;;;;3.57;2.50;;;19.90;99.90;;;;;;4978276;28;20203;-94
2022/08/26 07:35:59;;;;;;;2.97;2.47;;;19.80;99.90;;;;;;4978982;28;20199;-93
2022/08/26 07:38:35;;;;;;;5.17;2.83;;;19.70;99.90;;;;;;4978880;28;20225;-94
2022/08/26 07:41:09;;;;;;;2.60;2.40;;;19.50;99.90;;;;;;4978736;28;20250;-93
2022/08/26 07:43:41;;;;;;;2.83;2.10;;;19.40;99.90;;;;;;4977725;28;20261;-94
2022/08/26 07:46:17;;;;;;;3.07;2.60;;;19.30;99.90;;;;;;4996657;28;20225;-92
2022/08/26 07:48:56;;;;;;;2.90;2.40;;;19.30;99.90;;;;;;4999211;28;20229;-93
2022/08/26 07:51:28;;;;;;;2.40;2.20;;;19.20;99.90;;;;;;4997524;28;20213;-93
2022/08/26 07:54:00;;;;;;;2.73;2.13;;;19.00;99.90;;;;;;4998242;28;20576;-93
2022/08/26 07:56:34;;;;;;;2.90;2.40;;;18.90;99.90;;;;;;4998693;28;20248;-93
2022/08/26 07:59:05;;;;;;;2.80;2.50;;;18.80;99.90;;;;;;4998112;28;20697;-93
2022/08/26 08:01:44;;;;;;;3.23;2.60;;;18.80;99.90;;;;;;4997088;28;20292;-93
2022/08/26 08:04:16;;;;;;;3.27;2.30;;;18.70;99.90;;;;;;4998277;28;20309;-94
2022/08/26 08:06:56;;;;;;;2.67;2.40;;;18.60;99.90;;;;;;4998365;28;20253;-95
2022/08/26 08:09:28;;;;;;;3.33;2.37;;;18.60;99.90;;;;;;4997019;28;20305;-93
2022/08/26 08:12:01;;;;;;;3.27;2.90;;;18.50;99.90;;;;;;4997283;28;20748;-93
2022/08/26 08:14:36;;;;;;;7.13;2.73;;;18.50;99.90;;;;;;4998139;28;20234;-93
2022/08/26 08:17:08;;;;;;;3.00;2.50;;;18.40;99.90;;;;;;4997662;28;20217;-92
2022/08/26 08:19:39;;;;;;;2.30;2.10;;;18.40;99.90;;;;;;4998432;28;20663;-93
2022/08/26 08:22:11;;;;;;;2.40;2.20;;;18.30;99.90;;;;;;4997010;28;20671;-93
2022/08/26 08:24:49;;;;;;;2.73;2.40;;;18.20;99.90;;;;;;4997895;28;20555;-94
2022/08/26 08:27:26;;;;;;;3.97;2.70;;;18.10;99.90;;;;;;5009417;28;20195;-92
2022/08/26 08:29:57;;;;;;;3.03;2.60;;;18.10;99.90;;;;;;5011954;28;20214;-92
2022/08/26 08:32:30;;;;;;;2.70;2.50;;;18.10;99.90;;;;;;5006485;28;20218;-93
2022/08/26 08:38:02;;;;;;;2.73;2.53;;;18.00;99.90;;;;;;5014041;28;20216;-92
2022/08/26 08:40:34;;;;;;;3.20;2.90;;;17.90;99.90;;;;;;5004334;28;20241;-92
2022/08/26 08:43:11;;;;;;;2.83;2.37;;;17.80;99.90;;;;;;5006424;28;20329;-93
2022/08/26 08:45:48;;;;;;;2.73;2.40;;;17.90;99.90;;;;;;4999372;28;20215;-92
2022/08/26 08:48:24;;;;;;;4.57;2.57;;;17.80;99.90;;;;;;4996382;28;20230;-93
2022/08/26 08:51:05;;;;;;;3.90;2.87;;;17.80;99.90;;;;;;4992396;28;20222;-94
2022/08/26 08:53:40;;;;;;;3.47;2.73;;;17.70;99.90;;;;;;4981956;28;20203;-93
2022/08/26 08:56:22;;;;;;;2.73;2.50;;;17.70;99.90;;;;;;4982683;28;20210;-93
2022/08/26 08:59:06;;;;;;;3.47;2.97;;;17.70;99.90;;;;;;4981808;28;20207;-93
2022/08/26 09:01:59;;;;;;;3.10;2.80;;;17.60;99.90;;;;;;4981671;28;20644;-92
2022/08/26 09:04:55;;;;;;;3.03;2.77;;;17.60;99.90;;;;;;4982836;28;20644;-93
2022/08/26 09:07:32;;;;;;;3.70;2.80;;;17.60;99.90;;;;;;4983890;28;20211;-92
2022/08/26 09:10:23;;;;;;;4.30;3.03;;;17.50;99.90;;;;;;4982365;28;20235;-93
2022/08/26 09:12:55;;;;;;;3.43;3.13;;;17.40;99.90;;;;;;4985563;28;20241;-93
2022/08/26 09:15:35;;;;;;;4.00;3.60;;;17.30;99.90;;;;;;4998938;28;20226;-93
2022/08/26 09:18:16;;;;;;;5.50;3.37;;;17.20;99.90;;;;;;5000213;28;20199;-94
2022/08/26 09:20:54;;;;;;;3.97;3.03;;;17.10;99.90;;;;;;5000392;28;20226;-93
2022/08/26 09:23:26;;;;;;;3.43;3.00;;;17.20;99.90;;;;;;5000165;28;20194;-93
2022/08/26 09:26:02;;;;;;;6.27;3.13;;;17.10;99.90;;;;;;4991262;28;20210;-93
2022/08/26 09:28:33;;;;;;;3.13;2.80;;;17.10;99.90;;;;;;4982242;28;20329;-93
2022/08/26 09:31:14;;;;;;;4.07;3.13;;;17.00;99.90;;;;;;4982311;28;20214;-92
2022/08/26 09:33:47;;;;;;;3.67;3.37;;;17.00;99.90;;;;;;4980689;28;20249;-93
2022/08/26 09:36:25;;;;;;;3.50;2.97;;;16.90;99.90;;;;;;4981387;28;20231;-93
2022/08/26 09:38:56;;;;;;;3.90;3.50;;;16.90;99.90;;;;;;4982144;28;20273;-93
2022/08/26 09:41:30;;;;;;;4.40;3.80;;;16.90;99.90;;;;;;4980125;28;20766;-92
2022/08/26 09:44:20;;;;;;;5.30;3.97;;;16.70;99.90;;;;;;4981149;28;20599;-92
2022/08/26 09:46:59;;;;;;;4.83;3.90;;;16.60;99.90;;;;;;4980145;28;20222;-92
2022/08/26 09:49:35;;;;;;;4.27;3.87;;;16.60;99.90;;;;;;4981057;28;20235;-93
2022/08/26 09:52:22;;;;;;;5.63;5.00;;;16.70;99.90;;;;;;4980310;28;20301;-93
2022/08/26 09:55:04;;;;;;;6.47;4.30;;;16.70;99.90;;;;;;4983468;28;20295;-93
2022/08/26 09:57:44;;;;;;;5.57;5.03;;;16.70;99.90;;;;;;4993335;28;20252;-93
2022/08/26 10:00:29;;;;;;;6.37;5.17;;;16.60;99.90;;;;;;5004110;28;20272;-92
2022/08/26 10:03:07;;;;;;;5.53;4.73;;;16.70;99.90;;;;;;5005973;28;20207;-92
2022/08/26 10:05:44;;;;;;;6.87;5.10;;;16.80;99.90;;;;;;5008742;28;20213;-92
2022/08/26 10:08:25;;;;;;;6.70;5.10;;;16.60;99.90;;;;;;5005268;28;20210;-93
2022/08/26 10:10:58;;;;;;;7.50;5.23;;;16.60;99.90;;;;;;5003169;28;20276;-93
2022/08/26 10:13:35;;;;;;;5.47;4.97;;;16.60;99.90;;;;;;5008947;28;20289;-91
2022/08/26 10:16:16;;;;;;;5.97;4.57;;;16.70;99.90;;;;;;5005564;28;20260;-92
2022/08/26 10:19:03;;;;;;;5.73;4.97;;;16.70;99.90;;;;;;4999935;28;20659;-93
2022/08/26 10:21:39;;;;;;;6.10;4.70;;;16.80;99.90;;;;;;4999887;28;20272;-93
2022/08/26 10:24:17;;;;;;;5.27;4.67;;;16.90;99.90;;;;;;5003997;28;20601;-92
2022/08/26 10:26:56;;;;;;;5.53;4.40;;;17.00;99.90;;;;;;5006674;28;20206;-92
2022/08/26 10:29:34;;;;;;;6.40;4.80;;;16.90;99.90;;;;;;5010073;28;20202;-93
2022/08/26 10:32:14;;;;;;;5.30;4.80;;;16.90;99.90;;;;;;5005027;28;20218;-93
2022/08/26 10:34:47;;;;;;;5.43;4.50;;;16.80;99.90;;;;;;4998990;28;20217;-93
2022/08/26 10:37:25;;;;;;;5.30;4.77;;;16.80;99.90;;;;;;4999076;28;20258;-92
2022/08/26 10:40:00;;;;;;;5.40;4.50;;;16.80;99.90;;;;;;4999352;28;20210;-92
2022/08/26 10:42:36;;;;;;;5.20;4.70;;;16.80;99.90;;;;;;4998359;28;20238;-93
2022/08/26 10:45:11;;;;;;;5.87;4.63;;;16.90;99.90;;;;;;4998971;28;20350;-92
2022/08/26 10:47:50;;;;;;;4.93;4.30;;;16.90;99.90;;;;;;5000606;28;20226;-93
2022/08/26 10:50:36;;;;;;;5.90;4.63;;;16.90;99.90;;;;;;5001248;28;20210;-92
2022/08/26 10:53:15;;;;;;;4.77;4.27;;;16.90;99.90;;;;;;5002962;28;20222;-92
2022/08/26 10:55:55;;;;;;;4.83;4.43;;;16.90;99.90;;;;;;4998841;28;20214;-92
2022/08/26 10:58:47;;;;;;;6.10;5.20;;;17.00;99.90;;;;;;4999572;28;20233;-92
2022/08/26 11:04:29;;;;;;;5.00;4.60;;;16.90;99.90;;;;;;5000660;28;20233;-93
2022/08/26 11:07:35;;;;;;;5.67;5.20;;;16.90;99.90;;;;;;5000941;28;20301;-93
2022/08/26 11:10:13;;;;;;;5.57;5.07;;;17.00;99.90;;;;;;4998344;28;20264;-94
2022/08/26 11:12:53;;;;;;;5.43;4.97;;;17.00;99.90;;;;;;4997585;28;20976;-92
2022/08/26 11:16:00;;;;;;;6.57;4.83;;;17.00;99.90;;;;;;4998569;28;20240;-92
2022/08/26 11:18:54;;;;;;;4.90;4.50;;;17.00;99.90;;;;;;4996720;28;20236;-92
2022/08/26 11:22:05;;;;;;;5.17;4.77;;;17.00;99.90;;;;;;4998295;28;20264;-92
2022/08/26 11:25:09;;;;;;;5.17;4.77;;;17.10;99.90;;;;;;4995378;28;20695;-93
2022/08/26 11:27:56;;;;;;;6.50;5.40;;;17.10;99.90;;;;;;4979184;28;20230;-93
2022/08/26 11:30:52;;;;;;;5.23;4.57;;;17.00;99.90;;;;;;4979170;28;20269;-91
2022/08/26 11:34:02;;;;;;;4.83;4.40;;;17.10;99.90;;;;;;4977074;28;20223;-93
2022/08/26 11:36:58;;;;;;;5.60;4.73;;;17.20;99.90;;;;;;4939664;28;20278;-92
2022/08/26 11:39:33;;;;;;;5.47;4.73;;;17.20;99.90;;;;;;4980001;28;20211;-93
2022/08/26 11:42:22;;;;;;;5.60;5.00;;;17.20;99.90;;;;;;4978434;28;20258;-93
2022/08/26 11:44:57;;;;;;;5.60;5.10;;;17.10;99.90;;;;;;4979665;28;20234;-93
2022/08/26 11:47:33;;;;;;;6.33;4.43;;;17.20;99.90;;;;;;4980845;28;20210;-93
2022/08/26 11:50:10;;;;;;;5.50;4.50;;;17.20;99.90;;;;;;4982470;28;20726;-93
2022/08/26 11:52:42;;;;;;;5.73;4.40;;;17.20;99.90;;;;;;4983184;28;20222;-94
2022/08/26 11:55:16;;;;;;;5.13;3.90;;;17.10;99.90;;;;;;4980864;28;20207;-94
2022/08/26 11:57:54;;;;;;;6.67;4.27;;;17.10;99.90;;;;;;4988134;28;20218;-91
2022/08/26 12:00:29;;;;;;;4.80;4.40;;;17.20;99.90;;;;;;4994198;28;20646;-93
2022/08/26 12:03:08;;;;;;;5.43;4.23;;;17.20;99.90;;;;;;4989771;28;20235;-91
2022/08/26 12:05:45;;;;;;;4.20;3.80;;;17.10;99.90;;;;;;4981533;28;20234;-93
2022/08/26 12:08:20;;;;;;;4.40;4.00;;;17.00;99.90;;;;;;4977751;28;20218;-93
2022/08/26 12:11:02;;;;;;;5.73;3.93;;;17.10;99.90;;;;;;4978307;28;20218;-93
2022/08/26 12:13:38;;;;;;;4.03;3.63;;;17.10;99.90;;;;;;4976011;28;20234;-93
2022/08/26 12:16:10;;;;;;;3.67;3.37;;;17.20;99.90;;;;;;5012798;28;20642;-93
2022/08/26 12:18:41;;;;;;;4.40;3.43;;;17.20;99.90;;;;;;5020175;28;20258;-93
2022/08/26 12:21:21;;;;;;;3.40;3.10;;;17.30;99.90;;;;;;5017400;28;20665;-93
2022/08/26 12:23:58;;;;;;;3.30;2.70;;;17.20;99.90;;;;;;5018826;28;20213;-93
2022/08/26 12:26:31;;;;;;;4.20;3.10;;;17.30;99.90;;;;;;5000696;28;20224;-93
2022/08/26 12:29:07;;;;;;;3.60;3.00;;;17.30;99.90;;;;;;5002068;28;20280;-93
2022/08/26 12:32:09;;;;;;;5.10;2.60;;;17.40;99.90;;;;;;4996394;28;20218;-93
2022/08/26 12:34:41;;;;;;;3.13;2.50;;;17.30;99.90;;;;;;4997448;28;20229;-92
2022/08/26 12:37:15;;;;;;;3.23;2.53;;;17.30;99.90;;;;;;4997090;28;20222;-93
2022/08/26 12:39:48;;;;;;;3.97;2.80;;;17.30;99.90;;;;;;4997554;28;20300;-93
2022/08/26 12:42:42;;;;;;;2.70;2.50;;;17.20;99.90;;;;;;4995859;28;20268;-92
2022/08/26 12:45:28;;;;;;;3.00;2.43;;;17.20;99.90;;;;;;4999473;28;20223;-92
2022/08/26 12:48:02;;;;;;;4.10;2.63;;;17.10;99.90;;;;;;4996738;28;20743;-92
2022/08/26 12:50:36;;;;;;;2.93;2.63;;;17.00;99.90;;;;;;4997332;28;20210;-92
2022/08/26 12:53:21;;;;;;;5.23;2.53;;;17.00;99.90;;;;;;4996301;28;20228;-93
2022/08/26 12:55:55;;;;;;;2.73;2.43;;;17.00;99.90;;;;;;4996883;28;20213;-93
2022/08/26 12:58:30;;;;;;;3.17;2.73;;;16.80;99.90;;;;;;4997197;28;20660;-92
2022/08/26 13:01:22;;;;;;;2.80;2.23;;;16.90;99.90;;;;;;4996620;28;20217;-91
2022/08/26 13:03:55;;;;;;;2.97;2.17;;;17.00;99.90;;;;;;4996368;28;20238;-92
2022/08/26 13:06:30;;;;;;;3.10;2.40;;;17.00;99.90;;;;;;4996567;28;20222;-93
2022/08/26 13:09:04;;;;;;;2.47;2.27;;;17.00;99.90;;;;;;4996361;28;20217;-92
2022/08/26 13:11:56;;;;;;;2.80;2.33;;;16.80;99.90;;;;;;4996593;28;20222;-93
2022/08/26 13:14:27;;;;;;;3.87;2.53;;;16.90;99.90;;;;;;4998879;28;20820;-93
2022/08/26 13:17:01;;;;;;;3.13;2.20;;;16.80;99.90;;;;;;4998168;28;20230;-93
2022/08/26 13:19:34;;;;;;;2.43;2.23;;;16.80;99.90;;;;;;4997223;28;20221;-91
2022/08/26 13:22:06;;;;;;;2.83;1.77;;;16.70;99.90;;;;;;4999883;28;20254;-92
2022/08/26 13:24:41;;;;;;;2.00;1.90;;;16.70;99.90;;;;;;4997412;28;20208;-92
2022/08/26 13:27:16;;;;;;;2.10;2.00;;;16.60;99.90;;;;;;4982996;28;20214;-93
2022/08/26 13:29:47;;;;;;;2.20;2.00;;;16.60;99.90;;;;;;4980971;28;20215;-93
2022/08/26 13:32:22;;;;;;;2.40;2.03;;;16.60;99.90;;;;;;4981155;28;20262;-93
2022/08/26 13:34:57;;;;;;;1.87;1.70;;;16.60;99.90;;;;;;4980525;28;20215;-92
2022/08/26 13:37:35;;;;;;;1.87;1.67;;;16.70;99.90;;;;;;4980962;28;20210;-92
2022/08/26 13:40:07;;;;;;;1.70;1.60;;;16.70;99.90;;;;;;4980881;28;20206;-93
2022/08/26 13:42:39;;;;;;;1.93;1.53;;;16.80;99.90;;;;;;4982135;28;20598;-93
2022/08/26 13:45:19;;;;;;;1.57;1.47;;;16.90;99.90;;;;;;4982926;28;20215;-93
2022/08/26 13:47:53;;;;;;;2.87;1.73;;;17.00;99.90;;;;;;4984991;28;20211;-93
2022/08/26 13:50:25;;;;;;;2.17;1.97;;;16.90;99.90;;;;;;4984428;28;20214;-93
2022/08/26 13:52:57;;;;;;;2.13;1.93;;;16.70;99.90;;;;;;4980964;28;20211;-92
2022/08/26 13:55:29;;;;;;;3.93;1.60;;;16.60;99.90;;;;;;4988396;28;20234;-93
2022/08/26 13:58:00;;;;;;;2.13;1.73;;;16.70;99.90;;;;;;4987542;28;20210;-94
2022/08/26 14:00:32;;;;;;;2.00;1.50;;;16.60;99.90;;;;;;4980875;28;20219;-93
2022/08/26 14:03:06;;;;;;;3.23;1.33;;;16.60;99.90;;;;;;4983153;28;20255;-93
2022/08/26 14:05:42;;;;;;;1.50;1.40;;;16.70;99.90;;;;;;4980851;28;20682;-92
2022/08/26 14:08:14;;;;;;;1.50;1.40;;;16.50;99.90;;;;;;4980989;28;20210;-92
2022/08/26 14:10:46;;;;;;;1.40;1.30;;;16.40;99.90;;;;;;4978381;28;20676;-92
2022/08/26 14:13:17;;;;;;;2.20;1.27;;;16.40;99.90;;;;;;4979369;28;20230;-93
2022/08/26 14:15:50;;;;;;;1.47;1.30;;;16.50;99.90;;;;;;5008956;28;20217;-93
2022/08/26 14:18:31;;;;;;;2.10;1.20;;;16.50;99.90;;;;;;5019030;28;20221;-93
2022/08/26 14:21:09;;;;;;;1.93;1.37;;;16.50;99.90;;;;;;5018992;28;20270;-92
2022/08/26 14:23:41;;;;;;;2.37;1.40;;;16.50;99.90;;;;;;5018059;28;20316;-93
2022/08/26 14:26:14;;;;;;;1.53;1.30;;;16.40;99.90;;;;;;5003217;28;20203;-93
2022/08/26 14:28:59;;;;;;;2.93;1.13;;;16.40;99.90;;;;;;4999200;28;20218;-93